createdAt,value
2018-03-16T00:00:03.907Z,0
2018-03-16T00:01:03.943Z,0
2018-03-16T00:02:03.645Z,0
2018-03-16T00:03:03.874Z,0
2018-03-16T00:04:03.600Z,0
2018-03-16T00:05:03.834Z,0
2018-03-16T00:06:03.829Z,0
2018-03-16T00:07:03.809Z,0
2018-03-16T00:08:03.811Z,0
2018-03-16T00:09:03.538Z,0
2018-03-16T00:10:03.770Z,0
2018-03-16T00:11:03.754Z,0
2018-03-16T00:12:03.745Z,0
2018-03-16T00:13:03.768Z,0
2018-03-16T00:14:03.722Z,0
2018-03-16T00:15:03.708Z,0
2018-03-16T00:16:03.693Z,0
2018-03-16T00:17:03.694Z,0
2018-03-16T00:18:03.671Z,0
2018-03-16T00:19:03.410Z,0
2018-03-16T00:20:03.638Z,0
2018-03-16T00:21:03.618Z,0
2018-03-16T00:22:03.355Z,0
2018-03-16T00:23:03.595Z,0
2018-03-16T00:24:03.584Z,0
2018-03-16T00:25:03.571Z,0
2018-03-16T00:26:03.566Z,0
2018-03-16T00:27:03.532Z,0
2018-03-16T00:28:03.537Z,0
2018-03-16T00:29:03.523Z,0
2018-03-16T00:30:02.991Z,0
2018-03-16T00:31:03.234Z,0
2018-03-16T00:32:03.480Z,0
2018-03-16T00:33:03.465Z,0
2018-03-16T00:34:03.233Z,0
2018-03-16T00:35:03.185Z,0
2018-03-16T00:36:02.902Z,0
2018-03-16T00:37:03.400Z,0
2018-03-16T00:38:03.138Z,0
2018-03-16T00:39:03.380Z,0
2018-03-16T00:40:03.377Z,0
2018-03-16T00:41:03.347Z,0
2018-03-16T00:42:03.334Z,0
2018-03-16T00:43:03.069Z,0
2018-03-16T00:44:03.051Z,0
2018-03-16T00:45:02.795Z,0
2018-03-16T00:46:03.027Z,0
2018-03-16T00:47:03.268Z,0
2018-03-16T00:48:03.255Z,0
2018-03-16T00:49:03.268Z,0
2018-03-16T00:50:03.225Z,0
2018-03-16T00:51:03.216Z,0
2018-03-16T00:52:03.225Z,0
2018-03-16T00:53:02.929Z,0
2018-03-16T00:54:03.178Z,0
2018-03-16T00:55:03.169Z,0
2018-03-16T00:56:02.914Z,0
2018-03-16T00:57:03.141Z,0
2018-03-16T00:58:02.861Z,0
2018-03-16T00:59:03.109Z,0
2018-03-16T01:00:02.850Z,0
2018-03-16T01:01:02.838Z,0
2018-03-16T01:02:03.074Z,0
2018-03-16T01:03:03.050Z,0
2018-03-16T01:04:02.780Z,0
2018-03-16T01:05:02.783Z,0
2018-03-16T01:06:03.011Z,0
2018-03-16T01:07:02.755Z,0
2018-03-16T01:08:03.003Z,0
2018-03-16T01:09:02.970Z,0
2018-03-16T01:10:02.962Z,0
2018-03-16T01:11:02.702Z,0
2018-03-16T01:12:02.668Z,0
2018-03-16T01:13:02.919Z,0
2018-03-16T01:14:02.646Z,0
2018-03-16T01:15:02.628Z,0
2018-03-16T01:16:02.876Z,0
2018-03-16T01:17:02.604Z,0
2018-03-16T01:18:02.839Z,0
2018-03-16T01:19:02.838Z,0
2018-03-16T01:20:02.818Z,0
2018-03-16T01:21:02.812Z,0
2018-03-16T01:22:02.793Z,0
2018-03-16T01:23:02.779Z,0
2018-03-16T01:24:02.755Z,0
2018-03-16T01:25:02.497Z,0
2018-03-16T01:26:02.747Z,0
2018-03-16T01:27:02.724Z,0
2018-03-16T01:28:01.950Z,0
2018-03-16T01:29:02.703Z,0
2018-03-16T01:30:02.693Z,0
2018-03-16T01:31:02.679Z,0
2018-03-16T01:32:02.656Z,0
2018-03-16T01:33:02.389Z,0
2018-03-16T01:34:01.863Z,0
2018-03-16T01:35:02.101Z,0
2018-03-16T01:36:02.342Z,0
2018-03-16T01:37:02.586Z,0
2018-03-16T01:38:02.067Z,0
2018-03-16T01:39:02.051Z,0
2018-03-16T01:40:02.031Z,0
2018-03-16T01:41:01.785Z,0
2018-03-16T01:42:02.269Z,0
2018-03-16T01:43:02.545Z,0
2018-03-16T01:44:01.723Z,0
2018-03-16T01:45:02.229Z,0
2018-03-16T01:46:01.699Z,0
2018-03-16T01:47:01.940Z,0
2018-03-16T01:48:02.191Z,0
2018-03-16T01:49:02.166Z,0
2018-03-16T01:50:01.902Z,0
2018-03-16T01:51:01.883Z,0
2018-03-16T01:52:02.133Z,0
2018-03-16T01:53:01.858Z,0
2018-03-16T01:54:02.100Z,0
2018-03-16T01:55:02.345Z,0
2018-03-16T01:56:02.072Z,0
2018-03-16T01:57:02.321Z,0
2018-03-16T01:58:02.305Z,0
2018-03-16T01:59:02.295Z,0
2018-03-16T02:00:02.032Z,0
2018-03-16T02:01:02.009Z,0
2018-03-16T02:02:01.739Z,0
2018-03-16T02:03:01.974Z,0
2018-03-16T02:04:01.961Z,0
2018-03-16T02:05:01.697Z,0
2018-03-16T02:06:01.687Z,0
2018-03-16T02:07:02.176Z,0
2018-03-16T02:08:01.654Z,0
2018-03-16T02:09:02.152Z,0
2018-03-16T02:10:01.886Z,0
2018-03-16T02:11:01.619Z,0
2018-03-16T02:12:01.857Z,0
2018-03-16T02:13:01.584Z,0
2018-03-16T02:14:01.570Z,0
2018-03-16T02:15:01.820Z,0
2018-03-16T02:16:01.802Z,0
2018-03-16T02:17:02.043Z,0
2018-03-16T02:18:02.025Z,0
2018-03-16T02:19:02.011Z,0
2018-03-16T02:20:02.005Z,0
2018-03-16T02:21:01.997Z,0
2018-03-16T02:22:01.721Z,0
2018-03-16T02:23:01.704Z,0
2018-03-16T02:24:01.693Z,0
2018-03-16T02:25:01.688Z,0
2018-03-16T02:26:01.918Z,0
2018-03-16T02:27:01.652Z,0
2018-03-16T02:28:01.635Z,0
2018-03-16T02:29:01.618Z,0
2018-03-16T02:30:01.864Z,0
2018-03-16T02:31:01.853Z,0
2018-03-16T02:32:01.575Z,0
2018-03-16T02:33:01.571Z,0
2018-03-16T02:34:01.555Z,0
2018-03-16T02:35:01.548Z,0
2018-03-16T02:36:01.787Z,0
2018-03-16T02:37:01.516Z,0
2018-03-16T02:38:01.495Z,0
2018-03-16T02:39:01.741Z,0
2018-03-16T02:40:01.731Z,0
2018-03-16T02:41:01.719Z,0
2018-03-16T02:42:01.438Z,0
2018-03-16T02:43:01.442Z,0
2018-03-16T02:44:01.428Z,0
2018-03-16T02:45:01.425Z,0
2018-03-16T02:46:01.392Z,0
2018-03-16T02:47:01.628Z,0
2018-03-16T02:48:01.351Z,0
2018-03-16T02:49:01.351Z,0
2018-03-16T02:50:01.591Z,0
2018-03-16T02:51:01.366Z,0
2018-03-16T02:52:01.053Z,0
2018-03-16T02:53:01.537Z,0
2018-03-16T02:54:01.285Z,0
2018-03-16T02:55:01.515Z,0
2018-03-16T02:56:01.517Z,0
2018-03-16T02:57:01.492Z,0
2018-03-16T02:58:00.963Z,0
2018-03-16T02:59:01.460Z,0
2018-03-16T03:00:01.192Z,0
2018-03-16T03:01:01.428Z,0
2018-03-16T03:02:01.424Z,0
2018-03-16T03:03:00.902Z,0
2018-03-16T03:04:00.875Z,0
2018-03-16T03:05:01.377Z,0
2018-03-16T03:06:01.365Z,0
2018-03-16T03:07:01.155Z,0
2018-03-16T03:08:01.067Z,0
2018-03-16T03:09:01.063Z,0
2018-03-16T03:10:01.052Z,0
2018-03-16T03:11:01.035Z,0
2018-03-16T03:12:01.277Z,0
2018-03-16T03:13:01.257Z,0
2018-03-16T03:14:00.986Z,0
2018-03-16T03:15:01.282Z,0
2018-03-16T03:16:00.961Z,0
2018-03-16T03:17:01.215Z,0
2018-03-16T03:18:01.236Z,0
2018-03-16T03:19:00.662Z,0
2018-03-16T03:20:01.164Z,0
2018-03-16T03:21:01.147Z,0
2018-03-16T03:22:01.131Z,0
2018-03-16T03:23:01.127Z,0
2018-03-16T03:24:01.101Z,0
2018-03-16T03:25:01.099Z,0
2018-03-16T03:26:00.815Z,0
2018-03-16T03:27:01.058Z,0
2018-03-16T03:28:01.045Z,0
2018-03-16T03:29:01.031Z,0
2018-03-16T03:30:01.022Z,0
2018-03-16T03:31:01.008Z,0
2018-03-16T03:32:00.739Z,0
2018-03-16T03:33:00.983Z,0
2018-03-16T03:34:00.962Z,0
2018-03-16T03:35:00.945Z,0
2018-03-16T03:36:00.682Z,0
2018-03-16T03:37:00.923Z,0
2018-03-16T03:38:00.902Z,0
2018-03-16T03:39:00.900Z,0
2018-03-16T03:40:00.625Z,0
2018-03-16T03:41:00.859Z,0
2018-03-16T03:42:00.853Z,0
2018-03-16T03:43:00.579Z,0
2018-03-16T03:44:00.815Z,0
2018-03-16T03:45:00.812Z,0
2018-03-16T03:46:00.800Z,0
2018-03-16T03:47:00.527Z,0
2018-03-16T03:48:00.515Z,0
2018-03-16T03:49:00.504Z,0
2018-03-16T03:50:00.743Z,0
2018-03-16T03:51:00.723Z,0
2018-03-16T03:52:00.712Z,0
2018-03-16T03:53:00.701Z,0
2018-03-16T03:54:00.449Z,0
2018-03-16T03:55:00.671Z,0
2018-03-16T03:56:00.396Z,0
2018-03-16T03:57:00.644Z,0
2018-03-16T03:58:00.364Z,0
2018-03-16T03:59:00.612Z,0
2018-03-16T04:00:00.643Z,0
2018-03-16T04:01:00.574Z,0
2018-03-16T04:02:00.573Z,0
2018-03-16T04:03:00.556Z,0
2018-03-16T04:04:00.540Z,0
2018-03-16T04:05:00.266Z,0
2018-03-16T04:06:00.669Z,0
2018-03-16T04:07:00.505Z,0
2018-03-16T04:08:00.485Z,0
2018-03-16T04:09:00.470Z,0
2018-03-16T04:10:00.511Z,0
2018-03-16T04:11:00.450Z,0
2018-03-16T04:12:00.177Z,0
2018-03-16T04:13:00.417Z,0
2018-03-16T04:14:00.145Z,0
2018-03-16T04:15:00.174Z,0
2018-03-16T04:16:00.115Z,0
2018-03-16T04:17:00.358Z,0
2018-03-16T04:18:00.090Z,0
2018-03-16T04:19:00.325Z,0
2018-03-16T04:20:00.316Z,0
2018-03-16T04:21:00.312Z,0
2018-03-16T04:22:00.285Z,0
2018-03-16T04:23:00.021Z,0
2018-03-16T04:24:00.267Z,0
2018-03-16T04:24:59.990Z,0
2018-03-16T04:26:00.122Z,0
2018-03-16T04:26:59.958Z,0
2018-03-16T04:28:00.199Z,0
2018-03-16T04:29:00.183Z,0
2018-03-16T04:30:00.181Z,0
2018-03-16T04:31:00.160Z,0
2018-03-16T04:32:00.149Z,0
2018-03-16T04:33:00.130Z,0
2018-03-16T04:34:00.121Z,0
2018-03-16T04:35:00.104Z,0
2018-03-16T04:36:00.090Z,0
2018-03-16T04:37:00.086Z,0
2018-03-16T04:37:59.802Z,0
2018-03-16T04:38:59.551Z,0
2018-03-16T04:40:00.031Z,0
2018-03-16T04:41:00.015Z,0
2018-03-16T04:41:59.747Z,0
2018-03-16T04:42:59.993Z,0
2018-03-16T04:43:59.729Z,0
2018-03-16T04:44:59.965Z,0
2018-03-16T04:45:59.949Z,0
2018-03-16T04:46:59.925Z,0
2018-03-16T04:47:59.967Z,0
2018-03-16T04:48:59.905Z,0
2018-03-16T04:49:59.878Z,0
2018-03-16T04:50:59.614Z,0
2018-03-16T04:51:59.870Z,0
2018-03-16T04:52:59.859Z,0
2018-03-16T04:53:59.582Z,0
2018-03-16T04:54:59.815Z,0
2018-03-16T04:55:59.297Z,0
2018-03-16T04:56:59.539Z,0
2018-03-16T04:57:59.520Z,0
2018-03-16T04:58:59.499Z,0
2018-03-16T04:59:59.759Z,0
2018-03-16T05:00:59.474Z,0
2018-03-16T05:01:59.463Z,0
2018-03-16T05:02:59.450Z,0
2018-03-16T05:03:59.436Z,0
2018-03-16T05:04:59.422Z,0
2018-03-16T05:05:59.684Z,0
2018-03-16T05:06:59.389Z,0
2018-03-16T05:07:59.373Z,0
2018-03-16T05:08:59.377Z,0
2018-03-16T05:09:59.348Z,0
2018-03-16T05:10:59.605Z,0
2018-03-16T05:11:59.585Z,0
2018-03-16T05:12:59.315Z,0
2018-03-16T05:13:59.292Z,0
2018-03-16T05:14:59.285Z,0
2018-03-16T05:15:59.260Z,0
2018-03-16T05:16:59.514Z,0
2018-03-16T05:17:59.515Z,0
2018-03-16T05:18:59.477Z,0
2018-03-16T05:19:59.468Z,0
2018-03-16T05:20:59.578Z,0
2018-03-16T05:21:58.919Z,0
2018-03-16T05:22:59.168Z,0
2018-03-16T05:23:59.398Z,0
2018-03-16T05:24:58.873Z,0
2018-03-16T05:25:59.422Z,0
2018-03-16T05:26:59.105Z,0
2018-03-16T05:27:59.334Z,0
2018-03-16T05:28:59.071Z,0
2018-03-16T05:29:59.321Z,0
2018-03-16T05:30:59.297Z,0
2018-03-16T05:31:59.286Z,0
2018-03-16T05:32:59.266Z,0
2018-03-16T05:33:59.257Z,0
2018-03-16T05:34:59.243Z,0
2018-03-16T05:35:59.227Z,5
2018-03-16T05:36:58.968Z,5
2018-03-16T05:37:59.192Z,5
2018-03-16T05:38:58.927Z,5
2018-03-16T05:39:59.169Z,5
2018-03-16T05:40:59.155Z,5
2018-03-16T05:41:59.136Z,5
2018-03-16T05:42:59.139Z,5
2018-03-16T05:43:59.110Z,5
2018-03-16T05:44:59.106Z,5
2018-03-16T05:45:59.083Z,5
2018-03-16T05:46:59.069Z,5
2018-03-16T05:47:59.045Z,5
2018-03-16T05:48:58.522Z,5
2018-03-16T05:49:58.772Z,5
2018-03-16T05:50:59.011Z,5
2018-03-16T05:51:59.008Z,5
2018-03-16T05:52:58.715Z,5
2018-03-16T05:53:58.964Z,10
2018-03-16T05:54:59.098Z,10
2018-03-16T05:55:58.426Z,10
2018-03-16T05:56:58.917Z,10
2018-03-16T05:57:58.900Z,10
2018-03-16T05:58:58.385Z,10
2018-03-16T05:59:58.620Z,10
2018-03-16T06:00:59.176Z,10
2018-03-16T06:01:58.848Z,10
2018-03-16T06:02:58.581Z,15
2018-03-16T06:03:58.833Z,15
2018-03-16T06:04:58.812Z,15
2018-03-16T06:05:58.786Z,15
2018-03-16T06:06:58.788Z,15
2018-03-16T06:07:58.249Z,15
2018-03-16T06:08:58.738Z,15
2018-03-16T06:09:58.469Z,15
2018-03-16T06:10:59.015Z,20
2018-03-16T06:11:58.715Z,15
2018-03-16T06:12:58.693Z,20
2018-03-16T06:13:58.414Z,20
2018-03-16T06:14:58.656Z,20
2018-03-16T06:15:58.389Z,20
2018-03-16T06:16:58.643Z,20
2018-03-16T06:17:58.615Z,20
2018-03-16T06:18:58.350Z,20
2018-03-16T06:19:58.581Z,25
2018-03-16T06:20:58.308Z,25
2018-03-16T06:21:58.046Z,25
2018-03-16T06:22:58.028Z,25
2018-03-16T06:23:58.528Z,25
2018-03-16T06:24:58.006Z,30
2018-03-16T06:25:57.740Z,30
2018-03-16T06:26:58.032Z,30
2018-03-16T06:27:57.950Z,25
2018-03-16T06:28:58.192Z,30
2018-03-16T06:29:58.182Z,30
2018-03-16T06:30:57.910Z,30
2018-03-16T06:31:57.891Z,30
2018-03-16T06:32:58.138Z,35
2018-03-16T06:33:57.967Z,35
2018-03-16T06:34:58.110Z,35
2018-03-16T06:35:58.348Z,35
2018-03-16T06:36:57.822Z,40
2018-03-16T06:37:58.066Z,40
2018-03-16T06:38:58.046Z,45
2018-03-16T06:39:57.800Z,40
2018-03-16T06:40:58.270Z,40
2018-03-16T06:41:58.002Z,45
2018-03-16T06:42:58.243Z,45
2018-03-16T06:43:57.974Z,45
2018-03-16T06:44:59.405Z,45
2018-03-16T06:45:57.687Z,45
2018-03-16T06:46:58.180Z,45
2018-03-16T06:47:57.912Z,45
2018-03-16T06:48:57.904Z,45
2018-03-16T06:49:57.902Z,45
2018-03-16T06:50:57.869Z,45
2018-03-16T06:51:58.006Z,45
2018-03-16T06:52:57.853Z,45
2018-03-16T06:53:57.819Z,45
2018-03-16T06:54:57.814Z,45
2018-03-16T06:55:58.064Z,50
2018-03-16T06:56:58.059Z,50
2018-03-16T06:57:58.032Z,50
2018-03-16T06:58:58.024Z,45
2018-03-16T06:59:57.992Z,45
2018-03-16T07:00:57.979Z,45
2018-03-16T07:01:57.975Z,45
2018-03-16T07:02:57.953Z,45
2018-03-16T07:03:57.934Z,45
2018-03-16T07:04:57.922Z,50
2018-03-16T07:05:57.916Z,45
2018-03-16T07:06:57.906Z,45
2018-03-16T07:07:57.365Z,45
2018-03-16T07:08:57.862Z,45
2018-03-16T07:09:57.602Z,45
2018-03-16T07:10:57.837Z,50
2018-03-16T07:11:57.811Z,50
2018-03-16T07:12:57.552Z,50
2018-03-16T07:13:58.036Z,50
2018-03-16T07:14:57.776Z,50
2018-03-16T07:15:57.816Z,55
2018-03-16T07:16:57.233Z,60
2018-03-16T07:17:57.786Z,55
2018-03-16T07:18:57.206Z,60
2018-03-16T07:19:57.704Z,65
2018-03-16T07:20:57.693Z,60
2018-03-16T07:21:57.678Z,70
2018-03-16T07:22:57.657Z,75
2018-03-16T07:23:57.637Z,75
2018-03-16T07:24:57.629Z,70
2018-03-16T07:25:57.626Z,80
2018-03-16T07:26:57.598Z,80
2018-03-16T07:27:57.585Z,75
2018-03-16T07:28:57.314Z,70
2018-03-16T07:29:57.630Z,80
2018-03-16T07:30:57.461Z,80
2018-03-16T07:31:57.520Z,80
2018-03-16T07:32:57.693Z,85
2018-03-16T07:33:57.246Z,80
2018-03-16T07:34:57.479Z,80
2018-03-16T07:35:56.948Z,85
2018-03-16T07:36:57.194Z,85
2018-03-16T07:37:57.188Z,90
2018-03-16T07:38:57.431Z,90
2018-03-16T07:39:57.149Z,85
2018-03-16T07:40:57.423Z,85
2018-03-16T07:41:56.866Z,85
2018-03-16T07:42:57.178Z,80
2018-03-16T07:43:57.100Z,80
2018-03-16T07:44:57.588Z,85
2018-03-16T07:45:56.812Z,90
2018-03-16T07:46:57.318Z,85
2018-03-16T07:47:57.091Z,85
2018-03-16T07:48:56.778Z,90
2018-03-16T07:49:57.004Z,85
2018-03-16T07:50:56.998Z,85
2018-03-16T07:51:56.985Z,85
2018-03-16T07:52:57.220Z,80
2018-03-16T07:53:57.209Z,85
2018-03-16T07:54:57.205Z,85
2018-03-16T07:55:56.693Z,90
2018-03-16T07:56:56.906Z,85
2018-03-16T07:57:57.149Z,85
2018-03-16T07:58:56.877Z,90
2018-03-16T07:59:57.140Z,90
2018-03-16T08:00:56.860Z,90
2018-03-16T08:01:57.096Z,95
2018-03-16T08:02:57.079Z,85
2018-03-16T08:03:57.063Z,90
2018-03-16T08:04:57.056Z,90
2018-03-16T08:05:56.777Z,85
2018-03-16T08:06:57.020Z,85
2018-03-16T08:07:57.016Z,90
2018-03-16T08:08:57.092Z,85
2018-03-16T08:09:56.972Z,85
2018-03-16T08:10:56.964Z,90
2018-03-16T08:11:57.131Z,80
2018-03-16T08:12:56.965Z,90
2018-03-16T08:13:56.944Z,90
2018-03-16T08:14:56.909Z,90
2018-03-16T08:15:57.183Z,95
2018-03-16T08:16:56.614Z,95
2018-03-16T08:17:56.853Z,100
2018-03-16T08:18:56.876Z,100
2018-03-16T08:19:56.573Z,95
2018-03-16T08:20:56.814Z,100
2018-03-16T08:21:56.800Z,95
2018-03-16T08:22:56.826Z,100
2018-03-16T08:23:56.773Z,95
2018-03-16T08:24:56.748Z,95
2018-03-16T08:25:56.749Z,95
2018-03-16T08:26:56.718Z,90
2018-03-16T08:27:56.456Z,90
2018-03-16T08:28:56.439Z,90
2018-03-16T08:29:56.425Z,85
2018-03-16T08:30:56.662Z,90
2018-03-16T08:31:56.140Z,90
2018-03-16T08:32:56.634Z,85
2018-03-16T08:33:56.662Z,90
2018-03-16T08:34:56.611Z,90
2018-03-16T08:35:56.352Z,90
2018-03-16T08:36:56.581Z,85
2018-03-16T08:37:56.571Z,85
2018-03-16T08:38:56.554Z,80
2018-03-16T08:39:56.545Z,80
2018-03-16T08:40:56.272Z,80
2018-03-16T08:41:56.278Z,85
2018-03-16T08:42:56.518Z,85
2018-03-16T08:43:56.227Z,85
2018-03-16T08:44:56.467Z,90
2018-03-16T08:45:56.480Z,95
2018-03-16T08:46:56.436Z,95
2018-03-16T08:47:56.463Z,90
2018-03-16T08:48:55.894Z,95
2018-03-16T08:49:56.436Z,95
2018-03-16T08:50:56.385Z,90
2018-03-16T08:51:56.355Z,105
2018-03-16T08:52:56.341Z,105
2018-03-16T08:53:55.819Z,105
2018-03-16T08:54:56.313Z,100
2018-03-16T08:55:56.305Z,100
2018-03-16T08:56:56.291Z,105
2018-03-16T08:57:56.283Z,105
2018-03-16T08:58:56.340Z,115
2018-03-16T08:59:56.258Z,115
2018-03-16T09:00:55.979Z,115
2018-03-16T09:01:56.219Z,115
2018-03-16T09:02:56.430Z,115
2018-03-16T09:03:56.194Z,110
2018-03-16T09:04:56.175Z,105
2018-03-16T09:05:56.152Z,105
2018-03-16T09:06:56.144Z,120
2018-03-16T09:07:55.866Z,120
2018-03-16T09:08:55.872Z,120
2018-03-16T09:09:55.836Z,110
2018-03-16T09:10:56.095Z,110
2018-03-16T09:11:55.824Z,110
2018-03-16T09:12:56.047Z,115
2018-03-16T09:13:55.781Z,115
2018-03-16T09:14:56.031Z,110
2018-03-16T09:15:56.024Z,100
2018-03-16T09:16:56.016Z,105
2018-03-16T09:17:55.727Z,100
2018-03-16T09:18:55.976Z,100
2018-03-16T09:19:55.707Z,100
2018-03-16T09:20:55.951Z,105
2018-03-16T09:21:55.915Z,100
2018-03-16T09:22:55.899Z,100
2018-03-16T09:23:55.625Z,100
2018-03-16T09:24:55.617Z,95
2018-03-16T09:25:55.866Z,100
2018-03-16T09:26:55.880Z,105
2018-03-16T09:27:55.838Z,95
2018-03-16T09:28:55.817Z,100
2018-03-16T09:29:55.883Z,100
2018-03-16T09:30:55.793Z,95
2018-03-16T09:31:55.773Z,100
2018-03-16T09:32:55.771Z,100
2018-03-16T09:33:55.745Z,95
2018-03-16T09:34:55.579Z,95
2018-03-16T09:35:55.710Z,95
2018-03-16T09:36:55.704Z,95
2018-03-16T09:37:55.689Z,100
2018-03-16T09:38:55.184Z,100
2018-03-16T09:39:55.402Z,105
2018-03-16T09:40:55.391Z,105
2018-03-16T09:41:55.659Z,110
2018-03-16T09:42:55.361Z,105
2018-03-16T09:43:55.607Z,105
2018-03-16T09:44:55.584Z,105
2018-03-16T09:45:55.574Z,115
2018-03-16T09:46:55.560Z,125
2018-03-16T09:47:55.537Z,125
2018-03-16T09:48:55.298Z,125
2018-03-16T09:49:55.761Z,115
2018-03-16T09:50:55.500Z,120
2018-03-16T09:51:55.235Z,115
2018-03-16T09:52:55.231Z,115
2018-03-16T09:53:55.474Z,125
2018-03-16T09:54:55.458Z,120
2018-03-16T09:55:55.429Z,125
2018-03-16T09:56:55.192Z,125
2018-03-16T09:57:55.436Z,115
2018-03-16T09:58:55.386Z,115
2018-03-16T09:59:55.148Z,120
2018-03-16T10:00:55.133Z,120
2018-03-16T10:01:55.393Z,115
2018-03-16T10:02:55.081Z,120
2018-03-16T10:03:55.328Z,115
2018-03-16T10:04:55.032Z,120
2018-03-16T10:05:54.515Z,120
2018-03-16T10:06:55.018Z,115
2018-03-16T10:07:55.260Z,120
2018-03-16T10:08:55.235Z,115
2018-03-16T10:09:55.217Z,115
2018-03-16T10:10:54.974Z,115
2018-03-16T10:11:54.954Z,110
2018-03-16T10:12:55.176Z,120
2018-03-16T10:13:55.173Z,120
2018-03-16T10:14:54.623Z,120
2018-03-16T10:15:54.632Z,120
2018-03-16T10:16:54.606Z,115
2018-03-16T10:17:55.280Z,110
2018-03-16T10:18:54.587Z,105
2018-03-16T10:19:54.828Z,105
2018-03-16T10:20:55.057Z,105
2018-03-16T10:21:55.089Z,105
2018-03-16T10:22:54.806Z,105
2018-03-16T10:23:55.041Z,105
2018-03-16T10:24:54.994Z,105
2018-03-16T10:25:55.019Z,105
2018-03-16T10:26:54.709Z,105
2018-03-16T10:27:54.710Z,105
2018-03-16T10:28:54.976Z,100
2018-03-16T10:29:54.678Z,100
2018-03-16T10:30:54.722Z,95
2018-03-16T10:31:54.637Z,95
2018-03-16T10:32:54.889Z,100
2018-03-16T10:33:54.632Z,100
2018-03-16T10:34:54.593Z,90
2018-03-16T10:35:54.847Z,90
2018-03-16T10:36:54.309Z,90
2018-03-16T10:37:54.587Z,90
2018-03-16T10:38:54.548Z,95
2018-03-16T10:39:54.762Z,90
2018-03-16T10:40:54.505Z,95
2018-03-16T10:41:54.756Z,95
2018-03-16T10:42:54.843Z,95
2018-03-16T10:43:54.208Z,95
2018-03-16T10:44:54.438Z,95
2018-03-16T10:45:54.990Z,95
2018-03-16T10:46:54.677Z,100
2018-03-16T10:47:54.646Z,95
2018-03-16T10:48:54.843Z,95
2018-03-16T10:49:54.625Z,95
2018-03-16T10:50:54.379Z,90
2018-03-16T10:51:54.589Z,90
2018-03-16T10:52:54.310Z,90
2018-03-16T10:53:54.307Z,90
2018-03-16T10:54:54.546Z,95
2018-03-16T10:55:53.514Z,100
2018-03-16T10:56:54.534Z,100
2018-03-16T10:57:54.506Z,95
2018-03-16T10:58:54.226Z,95
2018-03-16T10:59:54.459Z,90
2018-03-16T11:00:54.191Z,90
2018-03-16T11:01:54.716Z,95
2018-03-16T11:02:54.445Z,95
2018-03-16T11:03:54.144Z,100
2018-03-16T11:04:54.393Z,110
2018-03-16T11:05:53.889Z,115
2018-03-16T11:06:54.104Z,115
2018-03-16T11:07:54.346Z,115
2018-03-16T11:08:54.096Z,115
2018-03-16T11:09:54.539Z,110
2018-03-16T11:10:54.349Z,110
2018-03-16T11:11:53.772Z,110
2018-03-16T11:12:53.808Z,115
2018-03-16T11:13:54.460Z,110
2018-03-16T11:14:53.724Z,115
2018-03-16T11:15:53.988Z,110
2018-03-16T11:16:54.239Z,110
2018-03-16T11:17:54.197Z,105
2018-03-16T11:18:54.204Z,105
2018-03-16T11:19:54.182Z,105
2018-03-16T11:20:53.886Z,105
2018-03-16T11:21:54.149Z,105
2018-03-16T11:22:54.563Z,110
2018-03-16T11:23:54.105Z,105
2018-03-16T11:24:54.096Z,105
2018-03-16T11:25:53.828Z,105
2018-03-16T11:26:53.821Z,115
2018-03-16T11:27:53.574Z,110
2018-03-16T11:28:54.033Z,110
2018-03-16T11:29:53.751Z,120
2018-03-16T11:30:54.007Z,115
2018-03-16T11:31:54.011Z,120
2018-03-16T11:32:53.989Z,130
2018-03-16T11:33:53.722Z,125
2018-03-16T11:34:53.936Z,130
2018-03-16T11:35:53.953Z,125
2018-03-16T11:36:53.946Z,130
2018-03-16T11:37:53.637Z,125
2018-03-16T11:38:53.875Z,125
2018-03-16T11:39:53.635Z,125
2018-03-16T11:40:53.373Z,120
2018-03-16T11:41:53.613Z,125
2018-03-16T11:42:53.808Z,120
2018-03-16T11:43:53.548Z,125
2018-03-16T11:44:53.552Z,120
2018-03-16T11:45:53.523Z,125
2018-03-16T11:46:53.501Z,120
2018-03-16T11:47:53.768Z,120
2018-03-16T11:48:53.488Z,135
2018-03-16T11:49:53.729Z,130
2018-03-16T11:50:53.445Z,130
2018-03-16T11:51:53.688Z,130
2018-03-16T11:52:53.719Z,130
2018-03-16T11:53:53.917Z,130
2018-03-16T11:54:53.643Z,130
2018-03-16T11:55:53.640Z,125
2018-03-16T11:56:53.606Z,130
2018-03-16T11:57:53.596Z,130
2018-03-16T11:58:53.647Z,130
2018-03-16T11:59:53.567Z,130
2018-03-16T12:00:53.286Z,125
2018-03-16T12:01:53.525Z,125
2018-03-16T12:02:53.520Z,125
2018-03-16T12:03:53.241Z,125
2018-03-16T12:04:53.506Z,125
2018-03-16T12:05:53.490Z,120
2018-03-16T12:06:53.493Z,120
2018-03-16T12:07:53.443Z,125
2018-03-16T12:08:53.476Z,125
2018-03-16T12:09:53.682Z,120
2018-03-16T12:10:53.582Z,125
2018-03-16T12:11:53.447Z,125
2018-03-16T12:12:53.395Z,130
2018-03-16T12:13:53.409Z,130
2018-03-16T12:14:53.367Z,135
2018-03-16T12:15:53.085Z,135
2018-03-16T12:16:53.329Z,140
2018-03-16T12:17:53.297Z,140
2018-03-16T12:18:53.281Z,140
2018-03-16T12:19:53.675Z,140
2018-03-16T12:20:53.248Z,145
2018-03-16T12:21:53.248Z,140
2018-03-16T12:22:52.959Z,150
2018-03-16T12:23:52.955Z,150
2018-03-16T12:24:53.189Z,150
2018-03-16T12:25:53.438Z,160
2018-03-16T12:26:53.185Z,150
2018-03-16T12:27:53.142Z,145
2018-03-16T12:29:00.007Z,150
2018-03-16T12:29:53.112Z,150
2018-03-16T12:30:53.113Z,145
2018-03-16T12:31:52.821Z,150
2018-03-16T12:32:53.073Z,155
2018-03-16T12:33:53.075Z,145
2018-03-16T12:34:53.064Z,145
2018-03-16T12:35:53.021Z,145
2018-03-16T12:36:53.224Z,145
2018-03-16T12:37:53.035Z,150
2018-03-16T12:38:52.733Z,150
2018-03-16T12:39:52.970Z,165
2018-03-16T12:40:52.944Z,145
2018-03-16T12:41:52.699Z,145
2018-03-16T12:42:52.920Z,160
2018-03-16T12:43:52.935Z,165
2018-03-16T12:44:52.889Z,155
2018-03-16T12:45:52.646Z,165
2018-03-16T12:46:52.889Z,150
2018-03-16T12:47:52.939Z,140
2018-03-16T12:48:52.621Z,145
2018-03-16T12:49:52.562Z,140
2018-03-16T12:50:52.798Z,145
2018-03-16T12:51:52.800Z,145
2018-03-16T12:52:52.849Z,135
2018-03-16T12:53:52.770Z,135
2018-03-16T12:54:52.239Z,125
2018-03-16T12:55:52.753Z,130
2018-03-16T12:56:52.979Z,130
2018-03-16T12:57:52.715Z,145
2018-03-16T12:58:52.485Z,145
2018-03-16T12:59:52.433Z,145
2018-03-16T13:00:52.413Z,130
2018-03-16T13:01:52.135Z,125
2018-03-16T13:02:52.809Z,135
2018-03-16T13:03:52.113Z,140
2018-03-16T13:04:52.387Z,140
2018-03-16T13:05:52.693Z,130
2018-03-16T13:06:52.061Z,140
2018-03-16T13:07:52.763Z,145
2018-03-16T13:08:52.556Z,135
2018-03-16T13:09:52.041Z,125
2018-03-16T13:10:52.255Z,125
2018-03-16T13:11:52.506Z,135
2018-03-16T13:12:52.231Z,140
2018-03-16T13:13:52.597Z,130
2018-03-16T13:14:51.958Z,130
2018-03-16T13:15:52.187Z,120
2018-03-16T13:16:52.420Z,125
2018-03-16T13:17:52.445Z,140
2018-03-16T13:18:52.414Z,140
2018-03-16T13:19:52.397Z,150
2018-03-16T13:20:52.122Z,125
2018-03-16T13:21:52.097Z,140
2018-03-16T13:22:52.358Z,145
2018-03-16T13:23:52.342Z,130
2018-03-16T13:24:52.043Z,140
2018-03-16T13:25:52.297Z,135
2018-03-16T13:26:52.029Z,125
2018-03-16T13:27:52.273Z,135
2018-03-16T13:28:52.279Z,120
2018-03-16T13:29:52.239Z,120
2018-03-16T13:30:52.216Z,120
2018-03-16T13:31:52.232Z,125
2018-03-16T13:32:51.960Z,120
2018-03-16T13:33:51.914Z,135
2018-03-16T13:34:51.904Z,135
2018-03-16T13:35:51.885Z,140
2018-03-16T13:36:51.364Z,135
2018-03-16T13:37:51.852Z,125
2018-03-16T13:38:51.621Z,130
2018-03-16T13:39:51.580Z,130
2018-03-16T13:40:51.552Z,135
2018-03-16T13:41:51.793Z,125
2018-03-16T13:42:51.803Z,125
2018-03-16T13:43:51.510Z,130
2018-03-16T13:44:51.491Z,125
2018-03-16T13:45:51.744Z,120
2018-03-16T13:46:51.464Z,135
2018-03-16T13:47:51.700Z,130
2018-03-16T13:48:51.439Z,140
2018-03-16T13:49:51.440Z,120
2018-03-16T13:50:51.691Z,115
2018-03-16T13:51:51.253Z,120
2018-03-16T13:52:51.644Z,125
2018-03-16T13:53:51.358Z,110
2018-03-16T13:54:51.348Z,125
2018-03-16T13:55:51.590Z,115
2018-03-16T13:56:51.328Z,100
2018-03-16T13:57:51.301Z,105
2018-03-16T13:58:52.048Z,100
2018-03-16T13:59:51.519Z,95
2018-03-16T14:00:51.251Z,100
2018-03-16T14:01:51.469Z,80
2018-03-16T14:02:51.767Z,85
2018-03-16T14:03:51.466Z,90
2018-03-16T14:04:51.732Z,90
2018-03-16T14:05:51.448Z,85
2018-03-16T14:06:51.684Z,105
2018-03-16T14:07:51.451Z,100
2018-03-16T14:08:51.388Z,95
2018-03-16T14:09:51.380Z,90
2018-03-16T14:10:51.633Z,100
2018-03-16T14:11:50.841Z,90
2018-03-16T14:12:51.585Z,105
2018-03-16T14:13:51.606Z,105
2018-03-16T14:14:51.323Z,100
2018-03-16T14:15:51.558Z,115
2018-03-16T14:16:51.524Z,125